createdAt,value
2022-12-31T00:00:34.062Z,98207.34
2022-12-31T00:03:02.636Z,98210.44
2022-12-31T00:05:33.055Z,98205.66
2022-12-31T00:08:01.774Z,98212.41
2022-12-31T00:10:30.074Z,98208.91
2022-12-31T00:12:58.189Z,98205.72
2022-12-31T00:15:26.095Z,98198.91
2022-12-31T00:17:54.084Z,98204.97
2022-12-31T00:20:22.092Z,98200.19
2022-12-31T00:22:51.443Z,98196.22
2022-12-31T00:25:19.501Z,98195.66
2022-12-31T00:27:47.528Z,98192.78
2022-12-31T00:30:15.739Z,98199.31
2022-12-31T00:32:43.962Z,98195.34
2022-12-31T00:35:11.973Z,98190.59
2022-12-31T00:37:40.179Z,98189.78
2022-12-31T00:40:10.852Z,98197.56
2022-12-31T00:42:38.947Z,98189.22
2022-12-31T00:45:07.356Z,98198.34
2022-12-31T00:47:35.287Z,98189.72
2022-12-31T00:50:03.251Z,98189.72
2022-12-31T00:52:31.402Z,98185.50
2022-12-31T00:54:59.329Z,98184.69
2022-12-31T00:57:28.792Z,98184.69
2022-12-31T00:59:56.752Z,98178.91
2022-12-31T01:02:24.977Z,98179.72
2022-12-31T01:04:53.042Z,98187.56
2022-12-31T01:07:21.129Z,98183.09
2022-12-31T01:09:49.200Z,98187.56
2022-12-31T01:12:17.142Z,98187.56
2022-12-31T01:14:46.479Z,98185.97
2022-12-31T01:17:14.715Z,98188.84
2022-12-31T01:19:42.719Z,98190.56
2022-12-31T01:22:10.833Z,98194.00
2022-12-31T01:24:38.864Z,98185.81
2022-12-31T01:27:06.806Z,98193.59
2022-12-31T01:29:34.902Z,98194.16
2022-12-31T01:32:04.395Z,98195.41
2022-12-31T01:34:32.453Z,98196.09
2022-12-31T01:37:00.419Z,98188.09
2022-12-31T01:39:28.459Z,98183.56
2022-12-31T01:41:56.463Z,98186.09
2022-12-31T01:44:49.407Z,98193.16
2022-12-31T01:47:20.495Z,98191.00
2022-12-31T01:49:50.255Z,98191.25
2022-12-31T01:52:21.468Z,98190.44
2022-12-31T01:54:51.501Z,98185.75
2022-12-31T01:57:20.101Z,98181.81
2022-12-31T01:59:48.110Z,98187.25
2022-12-31T02:02:17.040Z,98186.69
2022-12-31T02:04:46.519Z,98183.75
2022-12-31T02:07:14.891Z,98177.81
2022-12-31T02:09:43.443Z,98170.22
2022-12-31T02:12:11.719Z,98179.09
2022-12-31T02:14:41.038Z,98181.47
2022-12-31T02:17:12.035Z,98176.16
2022-12-31T02:19:57.952Z,98176.38
2022-12-31T02:22:34.632Z,98182.41
2022-12-31T02:25:10.706Z,98156.53
2022-12-31T02:27:43.108Z,98179.56
2022-12-31T02:30:14.220Z,98180.34
2022-12-31T02:33:05.964Z,98180.34
2022-12-31T02:35:39.565Z,98185.91
2022-12-31T02:38:10.626Z,98183.53
2022-12-31T02:40:39.528Z,98179.88
2022-12-31T02:43:07.897Z,98195.34
2022-12-31T02:45:39.138Z,98202.97
2022-12-31T02:48:14.609Z,98199.31
2022-12-31T02:50:55.751Z,98191.47
2022-12-31T02:53:33.946Z,98198.44
2022-12-31T02:56:05.111Z,98194.00
2022-12-31T02:58:49.284Z,98193.19
2022-12-31T03:01:39.441Z,98198.34
2022-12-31T03:04:21.379Z,98202.78
2022-12-31T03:06:49.316Z,98198.56
2022-12-31T03:09:49.947Z,98197.22
2022-12-31T03:12:36.295Z,98197.44
2022-12-31T03:15:22.867Z,98202.38
2022-12-31T03:17:53.405Z,98202.25
2022-12-31T03:20:39.482Z,98206.81
2022-12-31T03:23:08.265Z,98207.59
2022-12-31T03:25:35.461Z,98203.72
2022-12-31T03:28:04.878Z,98204.09
2022-12-31T03:30:33.409Z,98208.50
2022-12-31T03:33:02.903Z,98200.44
2022-12-31T03:35:31.137Z,98207.28
2022-12-31T03:37:59.140Z,98207.47
2022-12-31T03:40:27.982Z,98208.06
2022-12-31T03:42:55.883Z,98210.44
2022-12-31T03:45:23.873Z,98218.66
2022-12-31T03:47:51.961Z,98213.22
2022-12-31T03:50:21.608Z,98210.16
2022-12-31T03:52:49.503Z,98211.75
2022-12-31T03:55:17.522Z,98217.56
2022-12-31T03:57:45.546Z,98222.81
2022-12-31T04:00:14.644Z,98224.16
2022-12-31T04:02:43.150Z,98232.09
2022-12-31T04:05:11.494Z,98236.88
2022-12-31T04:07:40.901Z,98243.03
2022-12-31T04:10:10.614Z,98243.59
2022-12-31T04:12:38.701Z,98253.03
2022-12-31T04:15:07.385Z,98260.00
2022-12-31T04:17:35.395Z,98252.16
2022-12-31T04:20:03.446Z,98252.47
2022-12-31T04:22:31.433Z,98246.59
2022-12-31T04:25:00.901Z,98251.47
2022-12-31T04:27:28.911Z,98245.13
2022-12-31T04:29:56.887Z,98243.97
2022-12-31T04:32:24.914Z,98247.72
2022-12-31T04:34:52.896Z,98255.69
2022-12-31T04:37:20.831Z,98258.88
2022-12-31T04:39:48.735Z,98262.53
2022-12-31T04:42:18.321Z,98276.50
2022-12-31T04:44:46.424Z,98267.28
2022-12-31T04:47:17.470Z,98276.25
2022-12-31T04:49:49.826Z,98276.50
2022-12-31T04:52:17.974Z,98286.03
2022-12-31T04:54:45.919Z,98287.28
2022-12-31T04:57:14.233Z,98292.16
2022-12-31T04:59:43.757Z,98302.41
2022-12-31T05:02:11.966Z,98304.22
2022-12-31T05:04:40.053Z,98308.09
2022-12-31T05:07:07.998Z,98308.53
2022-12-31T05:09:36.030Z,98311.59
2022-12-31T05:12:04.152Z,98313.56
2022-12-31T05:14:32.141Z,98312.88
2022-12-31T05:17:01.572Z,98319.22
2022-12-31T05:19:29.559Z,98325.16
2022-12-31T05:22:15.163Z,98332.09
2022-12-31T05:24:43.134Z,98334.81
2022-12-31T05:27:11.202Z,98347.44
2022-12-31T05:29:39.332Z,98354.34
2022-12-31T05:32:08.728Z,98352.53
2022-12-31T05:34:36.742Z,98367.19
2022-12-31T05:37:04.819Z,98367.53
2022-12-31T05:39:32.805Z,98371.19
2022-12-31T05:42:00.773Z,98371.06
2022-12-31T05:44:28.857Z,98386.19
2022-12-31T05:46:56.963Z,98383.69
2022-12-31T05:49:26.456Z,98388.59
2022-12-31T05:51:54.384Z,98377.56
2022-12-31T05:54:22.419Z,98384.47
2022-12-31T05:56:50.387Z,98400.84
2022-12-31T05:59:18.765Z,98405.06
2022-12-31T06:01:46.762Z,98405.84
2022-12-31T06:04:14.744Z,98415.66
2022-12-31T06:06:44.168Z,98417.78
2022-12-31T06:09:12.224Z,98431.44
2022-12-31T06:11:40.400Z,98436.00
2022-12-31T06:14:08.551Z,98421.56
2022-12-31T06:16:36.621Z,98446.72
2022-12-31T06:19:04.997Z,98435.81
2022-12-31T06:21:33.003Z,98458.78
2022-12-31T06:24:02.382Z,98451.50
2022-12-31T06:26:30.324Z,98457.53
2022-12-31T06:28:58.448Z,98476.50
2022-12-31T06:31:26.530Z,98462.31
2022-12-31T06:33:54.613Z,98474.72
2022-12-31T06:36:23.106Z,98481.97
2022-12-31T06:38:51.131Z,98476.66
2022-12-31T06:41:20.632Z,98481.88
2022-12-31T06:43:49.203Z,98489.03
2022-12-31T06:46:18.346Z,98502.81
2022-12-31T06:48:46.591Z,98507.50
2022-12-31T06:51:17.475Z,98517.06
2022-12-31T06:53:46.151Z,98514.78
2022-12-31T06:56:16.755Z,98530.03
2022-12-31T06:58:47.251Z,98533.53
2022-12-31T07:01:27.798Z,98522.63
2022-12-31T07:04:01.045Z,98524.44
2022-12-31T07:06:32.357Z,98521.25
2022-12-31T07:09:06.387Z,98531.28
2022-12-31T07:11:40.474Z,98522.84
2022-12-31T07:14:20.375Z,98534.72
2022-12-31T07:16:53.997Z,98528.88
2022-12-31T07:19:26.755Z,98539.03
2022-12-31T07:21:55.211Z,98546.19
2022-12-31T07:24:23.832Z,98545.19
2022-12-31T07:27:02.787Z,98553.72
2022-12-31T07:29:39.261Z,98555.06
2022-12-31T07:32:12.171Z,98550.75
2022-12-31T07:34:46.062Z,98549.59
2022-12-31T07:37:18.937Z,98562.00
2022-12-31T07:39:49.834Z,98563.75
2022-12-31T07:42:21.288Z,98574.09
2022-12-31T07:44:59.243Z,98571.16
2022-12-31T07:47:28.496Z,98572.28
2022-12-31T07:49:57.442Z,98578.22
2022-12-31T07:52:25.883Z,98586.78
2022-12-31T07:54:54.002Z,98586.88
2022-12-31T07:57:22.699Z,98574.59
2022-12-31T08:00:00.176Z,98600.88
2022-12-31T08:02:40.121Z,98599.28
2022-12-31T08:05:12.955Z,98596.78
2022-12-31T08:07:44.889Z,98596.22
2022-12-31T08:10:18.376Z,98594.41
2022-12-31T08:12:47.412Z,98596.31
2022-12-31T08:15:16.442Z,98594.16
2022-12-31T08:17:46.349Z,98596.00
2022-12-31T08:20:15.343Z,98598.28
2022-12-31T08:23:03.375Z,98598.84
2022-12-31T08:25:36.643Z,98611.25
2022-12-31T08:28:09.263Z,98604.09
2022-12-31T08:30:42.180Z,98600.00
2022-12-31T08:33:15.630Z,98608.97
2022-12-31T08:35:53.029Z,98601.69
2022-12-31T08:38:32.853Z,98615.13
2022-12-31T08:41:04.839Z,98614.13
2022-12-31T08:43:37.704Z,98609.78
2022-12-31T08:46:09.270Z,98606.72
2022-12-31T08:48:40.522Z,98616.63
2022-12-31T08:51:11.595Z,98613.63
2022-12-31T08:53:40.110Z,98609.56
2022-12-31T08:56:11.629Z,98617.53
2022-12-31T08:58:46.999Z,98626.75
2022-12-31T09:01:19.126Z,98617.09
2022-12-31T09:03:59.235Z,98618.78
2022-12-31T09:06:29.101Z,98636.44
2022-12-31T09:09:02.930Z,98631.66
2022-12-31T09:11:34.104Z,98639.75
2022-12-31T09:14:22.769Z,98654.22
2022-12-31T09:17:04.726Z,98653.31
2022-12-31T09:19:40.880Z,98655.94
2022-12-31T09:22:09.039Z,98651.00
2022-12-31T09:24:37.468Z,98656.47
2022-12-31T09:27:07.395Z,98660.91
2022-12-31T09:29:44.806Z,98653.41
2022-12-31T09:32:20.360Z,98653.31
2022-12-31T09:34:55.494Z,98660.47
2022-12-31T09:37:26.932Z,98672.09
2022-12-31T09:39:58.171Z,98667.78
2022-12-31T09:42:44.163Z,98665.59
2022-12-31T09:45:25.525Z,98677.09
2022-12-31T09:48:06.794Z,98675.41
2022-12-31T09:50:51.428Z,98678.59
2022-12-31T09:53:30.156Z,98687.13
2022-12-31T09:55:59.179Z,98700.22
2022-12-31T09:58:34.109Z,98711.53
2022-12-31T10:01:05.395Z,98707.41
2022-12-31T10:03:44.772Z,98723.47
2022-12-31T10:06:26.435Z,98736.69
2022-12-31T10:09:04.255Z,98728.78
2022-12-31T10:11:35.304Z,98746.78
2022-12-31T10:14:15.116Z,98748.38
2022-12-31T10:16:50.858Z,98737.06
2022-12-31T10:19:45.948Z,98750.41
2022-12-31T10:22:26.065Z,98733.09
2022-12-31T10:25:03.578Z,98726.03
2022-12-31T10:27:39.841Z,98721.56
2022-12-31T10:30:14.522Z,98732.84
2022-12-31T10:32:44.291Z,98728.72
2022-12-31T10:35:30.599Z,98729.81
2022-12-31T10:38:04.355Z,98714.19
2022-12-31T10:40:40.236Z,98727.06
2022-12-31T10:43:29.301Z,98717.97
2022-12-31T10:46:22.879Z,98724.34
2022-12-31T10:49:06.241Z,98718.88
2022-12-31T10:52:01.026Z,98725.28
2022-12-31T10:54:51.391Z,98735.75
2022-12-31T10:57:36.649Z,98740.47
2022-12-31T11:00:13.575Z,98745.22
2022-12-31T11:03:05.954Z,98753.28
2022-12-31T11:05:51.492Z,98757.97
2022-12-31T11:08:30.198Z,98765.41
2022-12-31T11:11:09.675Z,98771.91
2022-12-31T11:13:48.867Z,98782.00
2022-12-31T11:16:22.569Z,98792.75
2022-12-31T11:18:55.115Z,98779.81
2022-12-31T11:21:29.243Z,98796.22
2022-12-31T11:24:04.796Z,98781.31
2022-12-31T11:26:42.370Z,98781.31
2022-12-31T11:29:16.775Z,98789.56
2022-12-31T11:31:52.480Z,98790.78
2022-12-31T11:34:41.366Z,98812.13
2022-12-31T11:37:19.106Z,98818.47
2022-12-31T11:39:51.281Z,98825.25
2022-12-31T11:42:28.322Z,98831.66
2022-12-31T11:45:00.628Z,98832.44
2022-12-31T11:48:20.251Z,98838.59
2022-12-31T11:50:33.977Z,98838.84
2022-12-31T11:53:08.351Z,98827.06
2022-12-31T11:55:40.618Z,98824.63
2022-12-31T11:58:16.059Z,98830.94
2022-12-31T12:00:47.313Z,98828.97
2022-12-31T12:03:15.435Z,98828.91
2022-12-31T12:05:43.690Z,98836.53
2022-12-31T12:08:13.347Z,98837.19
2022-12-31T12:10:43.422Z,98838.44
2022-12-31T12:13:13.762Z,98842.66
2022-12-31T12:15:46.396Z,98843.84
2022-12-31T12:18:20.409Z,98847.69
2022-12-31T12:20:48.672Z,98853.81
2022-12-31T12:23:18.641Z,98868.34
2022-12-31T12:25:46.715Z,98859.47
2022-12-31T12:28:22.300Z,98856.78
2022-12-31T12:30:56.437Z,98854.09
2022-12-31T12:33:24.596Z,98864.22
2022-12-31T12:35:52.844Z,98861.66
2022-12-31T12:38:25.693Z,98862.75
2022-12-31T12:40:54.920Z,98855.41
2022-12-31T12:43:24.160Z,98865.22
2022-12-31T12:45:53.448Z,98858.97
2022-12-31T12:48:26.905Z,98859.13
2022-12-31T12:50:55.064Z,98854.44
2022-12-31T12:53:33.699Z,98849.66
2022-12-31T12:56:08.627Z,98852.88
2022-12-31T12:58:41.571Z,98864.72
2022-12-31T13:01:12.852Z,98856.28
2022-12-31T13:06:52.797Z,98853.50
2022-12-31T13:09:26.813Z,98855.19
2022-12-31T13:12:07.171Z,98862.91
2022-12-31T13:14:44.684Z,98853.38
2022-12-31T13:17:26.639Z,98857.81
2022-12-31T13:19:58.107Z,98853.16
2022-12-31T13:22:30.868Z,98865.88
2022-12-31T13:25:02.063Z,98864.56
2022-12-31T13:27:35.362Z,98854.31
2022-12-31T13:30:04.889Z,98856.19
2022-12-31T13:32:39.352Z,98849.94
2022-12-31T13:35:26.962Z,98849.59
2022-12-31T13:38:05.149Z,98848.06
2022-12-31T13:40:37.340Z,98852.13
2022-12-31T13:43:09.312Z,98855.25
2022-12-31T13:45:40.501Z,98864.47
2022-12-31T13:48:14.450Z,98867.69
2022-12-31T13:50:46.401Z,98870.66
2022-12-31T13:53:20.260Z,98871.91
2022-12-31T13:55:56.691Z,98870.38
2022-12-31T13:58:32.255Z,98862.44
2022-12-31T14:01:04.803Z,98849.25
2022-12-31T14:03:36.061Z,98857.69
2022-12-31T14:06:08.398Z,98858.81
2022-12-31T14:08:37.921Z,98863.94
2022-12-31T14:11:08.246Z,98858.28
2022-12-31T14:13:46.163Z,98855.16
2022-12-31T14:16:18.899Z,98860.41
2022-12-31T14:18:49.638Z,98863.03
2022-12-31T14:21:21.789Z,98860.06
2022-12-31T14:23:54.477Z,98853.72
2022-12-31T14:26:30.575Z,98857.94
2022-12-31T14:29:04.098Z,98847.72
2022-12-31T14:31:41.568Z,98849.69
2022-12-31T14:34:34.201Z,98848.78
2022-12-31T14:37:34.406Z,98864.16
2022-12-31T14:40:26.881Z,98863.84
2022-12-31T14:43:02.509Z,98867.72
2022-12-31T14:45:37.455Z,98860.19
2022-12-31T14:48:12.787Z,98861.34
2022-12-31T14:50:49.607Z,98868.63
2022-12-31T14:53:38.648Z,98861.13
2022-12-31T14:56:26.407Z,98855.44
2022-12-31T14:58:58.902Z,98863.03
2022-12-31T15:01:28.580Z,98873.75
2022-12-31T15:03:58.220Z,98869.22
2022-12-31T15:06:44.298Z,98871.56
2022-12-31T15:09:18.053Z,98880.78
2022-12-31T15:12:03.746Z,98868.03
2022-12-31T15:14:44.253Z,98860.47
2022-12-31T15:17:18.410Z,98865.13
2022-12-31T15:20:04.154Z,98864.69
2022-12-31T15:22:32.181Z,98851.63
2022-12-31T15:25:01.437Z,98877.88
2022-12-31T15:27:35.479Z,98865.25
2022-12-31T15:30:06.335Z,98859.81
2022-12-31T15:32:37.393Z,98870.88
2022-12-31T15:35:25.496Z,98864.16
2022-12-31T15:37:59.996Z,98857.31
2022-12-31T15:40:29.280Z,98854.50
2022-12-31T15:43:00.353Z,98852.22
2022-12-31T15:45:33.745Z,98857.69
2022-12-31T15:48:03.315Z,98852.00
2022-12-31T15:50:31.536Z,98841.63
2022-12-31T15:53:01.873Z,98847.13
2022-12-31T15:55:31.801Z,98854.63
2022-12-31T15:58:02.084Z,98845.03
2022-12-31T16:00:37.967Z,98848.44
2022-12-31T16:03:06.363Z,98849.16
2022-12-31T16:05:35.590Z,98858.91
2022-12-31T16:08:03.734Z,98849.78
2022-12-31T16:10:38.262Z,98866.66
2022-12-31T16:13:06.446Z,98859.47
2022-12-31T16:15:36.245Z,98861.94
2022-12-31T16:18:06.198Z,98843.09
2022-12-31T16:20:35.668Z,98860.16
2022-12-31T16:23:04.529Z,98861.09
2022-12-31T16:25:33.854Z,98860.28
2022-12-31T16:28:03.188Z,98859.06
2022-12-31T16:30:36.064Z,98852.72
2022-12-31T16:33:06.846Z,98842.44
2022-12-31T16:35:36.535Z,98841.81
2022-12-31T16:38:11.351Z,98831.97
2022-12-31T16:40:40.025Z,98833.69
2022-12-31T16:43:23.013Z,98837.91
2022-12-31T16:45:51.270Z,98835.31
2022-12-31T16:48:21.388Z,98836.44
2022-12-31T16:50:58.855Z,98827.94
2022-12-31T16:53:32.850Z,98835.66
2022-12-31T16:56:03.656Z,98826.91
2022-12-31T16:58:32.820Z,98830.00
2022-12-31T17:01:03.960Z,98828.63
2022-12-31T17:03:33.441Z,98828.56
2022-12-31T17:06:14.192Z,98827.34
2022-12-31T17:08:43.022Z,98828.38
2022-12-31T17:11:23.553Z,98833.19
2022-12-31T17:13:56.619Z,98824.50
2022-12-31T17:16:25.141Z,98820.88
2022-12-31T17:18:54.819Z,98820.63
2022-12-31T17:21:32.966Z,98820.63
2022-12-31T17:24:02.262Z,98819.59
2022-12-31T17:26:32.232Z,98826.16
2022-12-31T17:29:01.598Z,98813.16
2022-12-31T17:31:31.393Z,98801.84
2022-12-31T17:34:20.254Z,98793.19
2022-12-31T17:37:00.781Z,98783.50
2022-12-31T17:39:40.456Z,98785.03
2022-12-31T17:42:10.361Z,98778.72
2022-12-31T17:44:40.050Z,98770.47
2022-12-31T17:47:09.318Z,98775.28
2022-12-31T17:49:37.891Z,98778.47
2022-12-31T17:52:11.562Z,98778.28
2022-12-31T17:54:39.937Z,98777.53
2022-12-31T17:57:08.799Z,98780.28
2022-12-31T17:59:37.263Z,98770.47
2022-12-31T18:02:06.570Z,98752.22
2022-12-31T18:04:59.859Z,98766.13
2022-12-31T18:07:34.729Z,98766.19
2022-12-31T18:10:04.937Z,98763.41
2022-12-31T18:12:33.730Z,98751.56
2022-12-31T18:15:01.790Z,98757.81
2022-12-31T18:17:30.176Z,98757.00
2022-12-31T18:20:06.284Z,98760.63
2022-12-31T18:22:36.113Z,98740.13
2022-12-31T18:25:04.486Z,98742.56
2022-12-31T18:27:34.167Z,98737.53
2022-12-31T18:30:05.567Z,98736.97
2022-12-31T18:32:36.100Z,98729.13
2022-12-31T18:35:04.381Z,98737.75
2022-12-31T18:37:33.521Z,98741.97
2022-12-31T18:40:03.099Z,98745.16
2022-12-31T18:42:31.656Z,98738.03
2022-12-31T18:44:59.630Z,98744.75
2022-12-31T18:47:30.262Z,98734.22
2022-12-31T18:50:02.385Z,98734.53
2022-12-31T18:52:31.575Z,98726.03
2022-12-31T18:54:59.759Z,98709.44
2022-12-31T18:57:29.237Z,98703.78
2022-12-31T19:00:04.847Z,98703.56
2022-12-31T19:02:33.815Z,98699.63
2022-12-31T19:05:06.439Z,98709.66
2022-12-31T19:07:37.551Z,98692.03
2022-12-31T19:10:06.158Z,98695.81
2022-12-31T19:12:40.257Z,98710.56
2022-12-31T19:15:20.079Z,98702.81
2022-12-31T19:17:48.117Z,98693.25
2022-12-31T19:20:16.268Z,98684.31
2022-12-31T19:22:44.181Z,98686.91
2022-12-31T19:25:17.995Z,98675.72
2022-12-31T19:27:47.739Z,98680.84
2022-12-31T19:30:20.216Z,98676.31
2022-12-31T19:32:48.354Z,98678.34
2022-12-31T19:35:16.949Z,98663.31
2022-12-31T19:37:45.969Z,98662.16
2022-12-31T19:40:15.005Z,98668.06
2022-12-31T19:42:43.069Z,98663.97
2022-12-31T19:45:16.262Z,98668.19
2022-12-31T19:47:44.686Z,98659.53
2022-12-31T19:50:13.837Z,98659.31
2022-12-31T19:52:42.232Z,98642.72
2022-12-31T19:55:13.469Z,98655.91
2022-12-31T19:57:41.819Z,98669.78
2022-12-31T20:00:11.159Z,98659.00
2022-12-31T20:02:40.830Z,98650.94
2022-12-31T20:05:09.567Z,98658.78
2022-12-31T20:07:37.701Z,98654.19
2022-12-31T20:10:06.400Z,98638.41
2022-12-31T20:12:39.056Z,98639.06
2022-12-31T20:15:10.729Z,98637.47
2022-12-31T20:17:40.280Z,98648.53
2022-12-31T20:20:08.820Z,98650.38
2022-12-31T20:22:36.799Z,98645.13
2022-12-31T20:25:05.014Z,98659.81
2022-12-31T20:27:33.565Z,98653.09
2022-12-31T20:30:01.554Z,98648.09
2022-12-31T20:32:30.840Z,98624.28
2022-12-31T20:35:00.252Z,98628.16
2022-12-31T20:37:28.369Z,98616.09
2022-12-31T20:39:56.352Z,98601.66
2022-12-31T20:42:24.492Z,98595.81
2022-12-31T20:44:52.532Z,98578.19
2022-12-31T20:47:20.415Z,98563.25
2022-12-31T20:52:37.959Z,98542.78
2022-12-31T20:55:06.397Z,98547.69
2022-12-31T20:57:34.400Z,98553.84
2022-12-31T21:00:02.561Z,98543.38
2022-12-31T21:02:42.247Z,98552.47
2022-12-31T21:05:11.260Z,98558.25
2022-12-31T21:07:41.186Z,98547.00
2022-12-31T21:10:09.712Z,98553.03
2022-12-31T21:12:53.412Z,98511.47
2022-12-31T21:15:22.232Z,98543.81
2022-12-31T21:17:50.264Z,98541.19
2022-12-31T21:20:18.338Z,98539.41
2022-12-31T21:22:47.779Z,98527.09
2022-12-31T21:25:15.920Z,98537.31
2022-12-31T21:27:44.056Z,98535.38
2022-12-31T21:30:20.577Z,98529.03
2022-12-31T21:32:48.723Z,98522.75
2022-12-31T21:38:19.610Z,98527.66
2022-12-31T21:40:47.712Z,98523.56
2022-12-31T21:43:35.584Z,98526.75
2022-12-31T21:46:07.541Z,98530.16
2022-12-31T21:48:35.733Z,98525.38
2022-12-31T21:51:08.322Z,98522.88
2022-12-31T21:53:37.874Z,98516.50
2022-12-31T21:56:11.982Z,98519.09
2022-12-31T21:58:40.901Z,98506.47
2022-12-31T22:01:28.260Z,98501.94
2022-12-31T22:03:56.376Z,98490.09
2022-12-31T22:06:25.219Z,98490.78
2022-12-31T22:08:55.463Z,98469.50
2022-12-31T22:11:25.173Z,98484.97
2022-12-31T22:13:55.253Z,98471.34
2022-12-31T22:16:30.618Z,98458.56
2022-12-31T22:19:05.957Z,98463.56
2022-12-31T22:21:34.034Z,98465.41
2022-12-31T22:24:05.614Z,98462.78
2022-12-31T22:26:33.660Z,98460.63
2022-12-31T22:29:01.688Z,98459.28
2022-12-31T22:31:31.296Z,98462.22
2022-12-31T22:33:59.920Z,98430.72
2022-12-31T22:36:28.080Z,98449.91
2022-12-31T22:38:57.412Z,98446.16
2022-12-31T22:41:27.263Z,98434.00
2022-12-31T22:44:02.702Z,98426.13
2022-12-31T22:46:31.487Z,98432.84
2022-12-31T22:49:00.176Z,98427.16
2022-12-31T22:51:58.709Z,98422.81
2022-12-31T22:54:16.529Z,98433.31
2022-12-31T22:56:45.939Z,98412.47
2022-12-31T22:59:13.909Z,98412.47
2022-12-31T23:01:42.040Z,98414.53
2022-12-31T23:04:10.118Z,98407.81
2022-12-31T23:06:43.702Z,98417.59
2022-12-31T23:09:29.023Z,98418.75
2022-12-31T23:11:58.644Z,98408.50
2022-12-31T23:14:44.327Z,98391.53
2022-12-31T23:17:33.112Z,98391.41
2022-12-31T23:20:18.539Z,98371.50
2022-12-31T23:23:05.707Z,98384.59
2022-12-31T23:25:33.823Z,98379.69
2022-12-31T23:28:03.453Z,98379.53
2022-12-31T23:30:31.489Z,98379.69
2022-12-31T23:32:59.809Z,98387.53
2022-12-31T23:35:27.776Z,98379.78
2022-12-31T23:37:55.760Z,98383.44
2022-12-31T23:40:23.644Z,98376.84
2022-12-31T23:42:51.660Z,98375.69
2022-12-31T23:45:21.066Z,98380.25
2022-12-31T23:47:49.113Z,98366.69
2022-12-31T23:50:17.182Z,98378.75
2022-12-31T23:52:45.224Z,98365.44
2022-12-31T23:55:13.132Z,98371.69
2022-12-31T23:57:41.102Z,98371.59
